Time;durP1;ratioP1;P1;durP2;ratioP2;P2;SDS_P1;SDS_P2;PMS_P1;PMS_P2;Temp;Humidity;BMP_temperature;BMP_pressure;BME280_temperature;BME280_humidity;BME280_pressure;Samples;Min_cycle;Max_cycle;Signal;HPM_P1;HPM_P2
2021/06/14 00:01:21;;;;;;;9.90;5.32;;;13.10;99.90;;;;;;5114672;28;20097;-74
2021/06/14 00:03:46;;;;;;;8.23;4.82;;;13.10;99.90;;;;;;5114144;28;20400;-75
2021/06/14 00:06:12;;;;;;;6.82;5.03;;;13.00;99.90;;;;;;5112784;28;20139;-74
2021/06/14 00:08:41;;;;;;;7.18;5.22;;;13.00;99.90;;;;;;5115307;28;20377;-74
2021/06/14 00:11:07;;;;;;;10.25;5.50;;;13.00;99.90;;;;;;5114838;28;20476;-75
2021/06/14 00:13:33;;;;;;;8.38;5.65;;;13.00;99.90;;;;;;5115395;28;20035;-75
2021/06/14 00:15:59;;;;;;;6.85;5.28;;;13.00;99.90;;;;;;5115356;28;20124;-75
2021/06/14 00:18:26;;;;;;;5.88;4.82;;;13.00;99.90;;;;;;5115186;28;20445;-75
2021/06/14 00:20:57;;;;;;;6.07;5.20;;;12.90;99.90;;;;;;5114634;28;20457;-75
2021/06/14 00:23:25;;;;;;;7.65;5.93;;;12.90;99.90;;;;;;5115231;28;20024;-76
2021/06/14 00:25:51;;;;;;;9.07;5.35;;;12.80;99.90;;;;;;5114036;28;20096;-75
2021/06/14 00:28:17;;;;;;;9.13;5.63;;;12.70;99.90;;;;;;5115329;28;20466;-75
2021/06/14 00:30:47;;;;;;;9.93;5.40;;;12.70;99.90;;;;;;5114536;28;20027;-73
2021/06/14 00:33:15;;;;;;;7.05;5.65;;;12.70;99.90;;;;;;5115142;28;20477;-73
2021/06/14 00:35:42;;;;;;;9.13;5.18;;;12.70;99.90;;;;;;5114923;28;20575;-73
2021/06/14 00:38:08;;;;;;;7.10;5.03;;;12.70;99.90;;;;;;5114739;28;20144;-74
2021/06/14 00:40:35;;;;;;;6.57;4.85;;;12.60;99.90;;;;;;5113048;28;20027;-75
2021/06/14 00:43:02;;;;;;;10.05;5.30;;;12.60;99.90;;;;;;5115213;28;20469;-73
2021/06/14 00:45:31;;;;;;;11.02;5.80;;;12.60;99.90;;;;;;5113373;28;20101;-74
2021/06/14 00:47:58;;;;;;;8.05;5.70;;;12.60;99.90;;;;;;5114890;28;20502;-73
2021/06/14 00:50:47;;;;;;;7.07;5.55;;;12.60;99.90;;;;;;5114102;28;20084;-73
2021/06/14 00:53:19;;;;;;;8.10;5.45;;;12.50;99.90;;;;;;5114107;28;20511;-73
2021/06/14 00:55:46;;;;;;;9.95;6.15;;;12.40;99.90;;;;;;5114665;28;20039;-74
2021/06/14 00:58:13;;;;;;;7.00;5.63;;;12.40;99.90;;;;;;5114691;28;20028;-75
2021/06/14 01:00:39;;;;;;;6.97;5.70;;;12.30;99.90;;;;;;5113782;28;20362;-75
2021/06/14 01:03:05;;;;;;;9.57;5.53;;;12.30;99.90;;;;;;5114619;28;20405;-74
2021/06/14 01:05:39;;;;;;;7.28;6.07;;;12.30;99.90;;;;;;5113218;28;20069;-74
2021/06/14 01:08:09;;;;;;;8.35;5.78;;;12.20;99.90;;;;;;5114167;28;20466;-74
2021/06/14 01:10:39;;;;;;;8.23;5.88;;;12.20;99.90;;;;;;5112560;28;20122;-74
2021/06/14 01:13:20;;;;;;;6.10;5.50;;;12.20;99.90;;;;;;5113424;28;20385;-75
2021/06/14 01:16:15;;;;;;;9.25;6.15;;;12.30;99.90;;;;;;5114234;28;20024;-75
2021/06/14 01:18:58;;;;;;;9.48;6.20;;;12.20;99.90;;;;;;5112644;28;20047;-76
2021/06/14 01:21:31;;;;;;;9.60;6.45;;;12.10;99.90;;;;;;5113675;28;20057;-74
2021/06/14 01:24:03;;;;;;;9.55;5.88;;;12.10;99.90;;;;;;5114087;28;20028;-74
2021/06/14 01:26:36;;;;;;;8.55;5.45;;;12.00;99.90;;;;;;5114092;28;20016;-74
2021/06/14 01:29:02;;;;;;;12.38;6.55;;;12.00;99.90;;;;;;5114017;28;20035;-74
2021/06/14 01:31:32;;;;;;;7.43;5.82;;;11.90;99.90;;;;;;5113689;28;20077;-73
2021/06/14 01:34:00;;;;;;;11.35;6.28;;;11.90;99.90;;;;;;5114834;28;20023;-74
2021/06/14 01:36:29;;;;;;;7.00;6.30;;;11.90;99.90;;;;;;5114280;28;20031;-74
2021/06/14 01:38:56;;;;;;;8.48;6.13;;;11.90;99.90;;;;;;5113667;28;20012;-74
2021/06/14 01:41:25;;;;;;;8.45;6.30;;;11.90;99.90;;;;;;5111872;28;20435;-76
2021/06/14 01:43:52;;;;;;;9.18;6.28;;;11.80;99.90;;;;;;5113909;28;20059;-75
2021/06/14 01:46:25;;;;;;;10.88;6.70;;;11.80;99.90;;;;;;5113963;28;20094;-75
2021/06/14 01:48:52;;;;;;;15.40;6.68;;;11.80;99.90;;;;;;5112930;28;20040;-75
2021/06/14 01:51:21;;;;;;;12.23;6.45;;;11.70;99.90;;;;;;5113752;28;20433;-74
2021/06/14 01:54:02;;;;;;;9.00;6.40;;;11.60;99.90;;;;;;5114450;28;20174;-75
2021/06/14 01:56:32;;;;;;;11.15;7.13;;;11.60;99.90;;;;;;5115030;28;20110;-77
2021/06/14 01:59:00;;;;;;;10.38;6.63;;;11.50;99.90;;;;;;5114089;28;20082;-75
2021/06/14 02:01:28;;;;;;;9.32;7.00;;;11.50;99.90;;;;;;5113357;28;20012;-75
2021/06/14 02:03:55;;;;;;;10.85;6.97;;;11.60;99.90;;;;;;5112779;28;20028;-76
2021/06/14 02:06:22;;;;;;;11.15;6.50;;;11.50;99.90;;;;;;5114085;28;20020;-74
2021/06/14 02:08:48;;;;;;;9.32;7.43;;;11.40;99.90;;;;;;5117644;28;20030;-74
2021/06/14 02:11:14;;;;;;;10.30;7.63;;;11.40;99.90;;;;;;5130164;28;20048;-74
2021/06/14 02:13:41;;;;;;;9.52;6.82;;;11.40;99.90;;;;;;5131391;28;20104;-73
2021/06/14 02:16:08;;;;;;;11.68;6.90;;;11.40;99.90;;;;;;5126964;28;20430;-75
2021/06/14 02:18:33;;;;;;;8.55;6.60;;;11.30;99.90;;;;;;5113410;28;20550;-76
2021/06/14 02:20:59;;;;;;;9.15;7.30;;;11.40;99.90;;;;;;5118553;28;20031;-74
2021/06/14 02:23:25;;;;;;;10.63;7.60;;;11.40;99.90;;;;;;5122556;28;20042;-74
2021/06/14 02:25:50;;;;;;;8.73;6.85;;;11.30;99.90;;;;;;5121120;28;20503;-75
2021/06/14 02:28:16;;;;;;;8.52;7.13;;;11.30;99.90;;;;;;5113693;28;20016;-74
2021/06/14 02:30:42;;;;;;;12.55;7.68;;;11.30;99.90;;;;;;5111270;28;20077;-75
2021/06/14 02:33:07;;;;;;;7.63;6.68;;;11.30;99.90;;;;;;5113684;28;20053;-75
2021/06/14 02:35:33;;;;;;;11.63;7.30;;;11.20;99.90;;;;;;5114262;28;20051;-73
2021/06/14 02:38:03;;;;;;;9.73;7.45;;;11.20;99.90;;;;;;5112782;28;20385;-73
2021/06/14 02:40:31;;;;;;;9.15;7.88;;;11.20;99.90;;;;;;5111136;28;20489;-76
2021/06/14 02:43:08;;;;;;;10.15;7.68;;;11.10;99.90;;;;;;5112270;28;20030;-73
2021/06/14 02:45:37;;;;;;;8.48;7.30;;;11.10;99.90;;;;;;5111676;28;20016;-76
2021/06/14 02:48:07;;;;;;;9.27;7.72;;;11.10;99.90;;;;;;5112864;28;20124;-73
2021/06/14 02:50:35;;;;;;;14.60;6.75;;;11.20;99.90;;;;;;5112194;28;20114;-74
2021/06/14 02:53:07;;;;;;;10.50;7.70;;;11.10;99.90;;;;;;5112690;28;20615;-74
2021/06/14 02:55:44;;;;;;;8.07;7.28;;;11.10;99.90;;;;;;5112723;28;20024;-75
2021/06/14 02:58:10;;;;;;;10.23;7.20;;;11.10;99.90;;;;;;5112403;28;20028;-75
2021/06/14 03:00:36;;;;;;;9.00;7.80;;;11.00;99.90;;;;;;5110282;28;20020;-75
2021/06/14 03:03:05;;;;;;;10.02;6.68;;;11.00;99.90;;;;;;5112140;28;20080;-74
2021/06/14 03:05:31;;;;;;;12.75;7.63;;;11.00;99.90;;;;;;5112196;28;20020;-74
2021/06/14 03:07:59;;;;;;;11.60;7.45;;;11.00;99.90;;;;;;5110786;28;20050;-75
2021/06/14 03:10:28;;;;;;;8.73;7.18;;;11.00;99.90;;;;;;5111528;28;20458;-73
2021/06/14 03:12:58;;;;;;;9.98;7.45;;;11.00;99.90;;;;;;5111132;28;20386;-73
2021/06/14 03:15:25;;;;;;;10.95;7.43;;;11.00;99.90;;;;;;5111789;28;20020;-76
2021/06/14 03:17:55;;;;;;;10.00;8.32;;;11.00;99.90;;;;;;5112152;28;20032;-76
2021/06/14 03:20:22;;;;;;;9.50;7.65;;;11.00;99.90;;;;;;5111334;28;20098;-76
2021/06/14 03:22:48;;;;;;;12.85;7.88;;;10.90;99.90;;;;;;5112101;28;20110;-75
2021/06/14 03:25:14;;;;;;;12.73;7.63;;;11.00;99.90;;;;;;5112072;28;20016;-75
2021/06/14 03:27:42;;;;;;;14.15;7.20;;;11.00;99.90;;;;;;5111777;28;20080;-74
2021/06/14 03:30:10;;;;;;;12.10;8.13;;;10.90;99.90;;;;;;5111347;28;20035;-73
2021/06/14 03:32:41;;;;;;;11.35;7.78;;;10.90;99.90;;;;;;5109616;28;20115;-75
2021/06/14 03:35:11;;;;;;;14.43;8.27;;;10.90;99.90;;;;;;5112214;28;20530;-75
2021/06/14 03:37:37;;;;;;;10.50;7.55;;;10.80;99.90;;;;;;5111924;28;20068;-74
2021/06/14 03:40:04;;;;;;;13.57;8.50;;;10.90;99.90;;;;;;5111044;28;20028;-74
2021/06/14 03:42:31;;;;;;;13.73;8.75;;;10.80;99.90;;;;;;5111882;28;20028;-74
2021/06/14 03:44:59;;;;;;;13.85;8.90;;;10.80;99.90;;;;;;5111765;28;20020;-73
2021/06/14 03:47:25;;;;;;;9.88;7.82;;;10.80;99.90;;;;;;5111895;28;20382;-74
2021/06/14 03:49:51;;;;;;;11.52;7.95;;;10.80;99.90;;;;;;5111206;28;20107;-74
2021/06/14 03:52:17;;;;;;;8.90;7.95;;;10.80;99.90;;;;;;5110419;28;20055;-73
2021/06/14 03:54:43;;;;;;;12.27;7.80;;;10.80;99.90;;;;;;5111683;28;20459;-73
2021/06/14 03:57:08;;;;;;;11.45;7.30;;;10.90;99.90;;;;;;5111581;28;20035;-74
2021/06/14 03:59:34;;;;;;;9.20;7.50;;;10.90;99.90;;;;;;5110950;28;20042;-75
2021/06/14 04:02:00;;;;;;;10.82;7.82;;;10.90;99.90;;;;;;5111600;28;20485;-74
2021/06/14 04:06:54;;;;;;;8.05;7.13;;;10.90;99.90;;;;;;5111407;28;20035;-75
2021/06/14 04:09:19;;;;;;;8.50;7.20;;;11.00;99.90;;;;;;5111020;28;20036;-73
2021/06/14 04:11:45;;;;;;;9.07;7.53;;;11.00;99.90;;;;;;5101936;28;20023;-74
2021/06/14 04:14:11;;;;;;;12.43;7.47;;;11.10;99.90;;;;;;5086637;28;20499;-75
2021/06/14 04:16:36;;;;;;;9.07;7.47;;;11.10;99.90;;;;;;5090312;28;20073;-75
2021/06/14 04:19:02;;;;;;;11.15;8.10;;;11.10;99.90;;;;;;5098252;22;20041;-71
2021/06/14 04:21:28;;;;;;;9.85;8.48;;;11.10;99.90;;;;;;5045175;28;20490;-73
2021/06/14 04:23:54;;;;;;;12.02;7.75;;;11.20;99.90;;;;;;5055332;28;20034;-74
2021/06/14 04:26:19;;;;;;;11.02;8.18;;;11.20;99.90;;;;;;5023705;28;20022;-72
2021/06/14 04:28:45;;;;;;;11.40;8.20;;;11.20;99.90;;;;;;5028436;28;20713;-74
2021/06/14 04:31:11;;;;;;;11.00;8.35;;;11.20;99.90;;;;;;5026066;28;20358;-73
2021/06/14 04:33:37;;;;;;;12.70;9.20;;;11.20;99.90;;;;;;5025137;28;20022;-73
2021/06/14 04:36:04;;;;;;;11.05;8.02;;;11.20;99.90;;;;;;5023278;28;20029;-73
2021/06/14 04:38:31;;;;;;;10.70;8.32;;;11.30;99.90;;;;;;5023967;28;20050;-72
2021/06/14 04:40:57;;;;;;;13.88;8.77;;;11.20;99.90;;;;;;5020097;28;20026;-72
2021/06/14 04:43:23;;;;;;;11.80;8.60;;;11.20;99.90;;;;;;5014581;28;20432;-71
2021/06/14 04:45:49;;;;;;;9.55;7.40;;;11.30;99.90;;;;;;5014533;28;20503;-71
2021/06/14 04:48:14;;;;;;;10.90;7.65;;;11.30;99.90;;;;;;5014334;28;20021;-73
2021/06/14 04:50:40;;;;;;;10.43;8.30;;;11.30;99.90;;;;;;5024664;28;20094;-72
2021/06/14 04:53:06;;;;;;;9.35;7.57;;;11.30;99.90;;;;;;5022860;28;20060;-74
2021/06/14 04:55:31;;;;;;;12.60;7.63;;;11.50;99.90;;;;;;5035536;28;20037;-72
2021/06/14 04:57:57;;;;;;;9.75;6.35;;;11.60;99.90;;;;;;5042756;28;20075;-73
2021/06/14 05:00:23;;;;;;;9.00;6.53;;;11.70;99.90;;;;;;5038928;28;20037;-70
2021/06/14 05:02:50;;;;;;;10.20;7.03;;;11.70;99.90;;;;;;5037651;28;20025;-72
2021/06/14 05:05:15;;;;;;;9.73;6.38;;;11.80;99.90;;;;;;5038767;28;20581;-71
2021/06/14 05:07:42;;;;;;;8.20;6.13;;;11.90;99.90;;;;;;5049084;28;20029;-71
2021/06/14 05:10:09;;;;;;;10.73;6.70;;;11.90;99.90;;;;;;5051628;28;20078;-72
2021/06/14 05:12:34;;;;;;;10.30;7.40;;;11.90;99.90;;;;;;5053868;28;20394;-71
2021/06/14 05:15:00;;;;;;;9.65;7.38;;;12.00;99.90;;;;;;5051691;28;20029;-71
2021/06/14 05:17:26;;;;;;;12.02;7.30;;;12.10;99.90;;;;;;5053729;28;20090;-70
2021/06/14 05:19:51;;;;;;;15.10;7.47;;;12.10;99.90;;;;;;5051315;28;20485;-71
2021/06/14 05:22:17;;;;;;;9.43;7.10;;;12.20;99.90;;;;;;5014146;28;20022;-73
2021/06/14 05:24:43;;;;;;;10.35;7.43;;;12.20;99.90;;;;;;5029259;28;20462;-72
2021/06/14 05:27:09;;;;;;;11.00;7.85;;;12.20;99.90;;;;;;5013652;28;20476;-73
2021/06/14 05:29:35;;;;;;;11.95;7.43;;;12.20;99.90;;;;;;5013298;28;20048;-73
2021/06/14 05:32:04;;;;;;;16.15;7.55;;;12.30;99.90;;;;;;5013871;28;20113;-72
2021/06/14 05:34:30;;;;;;;10.90;7.22;;;12.30;99.90;;;;;;5013291;28;20030;-73
2021/06/14 05:36:56;;;;;;;10.90;8.20;;;12.30;99.90;;;;;;5014724;28;20049;-73
2021/06/14 05:39:22;;;;;;;9.93;6.57;;;12.40;99.90;;;;;;5013518;28;20026;-74
2021/06/14 05:41:48;;;;;;;10.52;7.43;;;12.40;99.90;;;;;;5013592;28;20114;-72
2021/06/14 05:44:15;;;;;;;14.82;8.90;;;12.50;99.90;;;;;;5014111;28;20021;-74
2021/06/14 05:46:40;;;;;;;11.77;8.57;;;12.60;99.90;;;;;;5026114;28;20052;-72
2021/06/14 05:49:06;;;;;;;9.07;8.00;;;12.60;99.90;;;;;;5032884;28;20118;-74
2021/06/14 05:51:32;;;;;;;9.07;6.80;;;12.80;99.90;;;;;;5039624;28;20053;-75
2021/06/14 05:53:58;;;;;;;10.68;7.57;;;12.80;99.90;;;;;;5031425;28;20040;-73
2021/06/14 05:56:24;;;;;;;8.80;7.00;;;12.90;99.90;;;;;;5014961;28;20028;-74
2021/06/14 05:58:51;;;;;;;14.43;7.18;;;12.90;99.90;;;;;;5031253;28;20026;-76
2021/06/14 06:01:17;;;;;;;9.35;6.82;;;13.10;99.90;;;;;;5030379;28;20030;-73
2021/06/14 06:03:42;;;;;;;7.40;6.00;;;13.20;99.90;;;;;;5013586;28;20080;-75
2021/06/14 06:06:08;;;;;;;9.48;5.60;;;13.40;99.90;;;;;;5027990;28;20480;-74
2021/06/14 06:08:34;;;;;;;8.43;6.45;;;13.60;99.90;;;;;;5023892;28;20529;-76
2021/06/14 06:10:59;;;;;;;9.07;5.68;;;14.00;99.90;;;;;;5028364;28;20064;-75
2021/06/14 06:13:25;;;;;;;11.68;5.15;;;14.00;99.90;;;;;;5025863;28;20483;-74
2021/06/14 06:15:51;;;;;;;7.10;5.32;;;14.10;99.90;;;;;;5052162;28;20039;-74
2021/06/14 06:18:17;;;;;;;10.20;6.07;;;14.30;99.90;;;;;;5050985;28;20493;-71
2021/06/14 06:20:43;;;;;;;10.25;5.18;;;14.40;99.90;;;;;;5051179;28;20390;-73
2021/06/14 06:23:09;;;;;;;16.38;5.78;;;14.90;99.90;;;;;;5052574;28;20055;-74
2021/06/14 06:25:35;;;;;;;8.70;4.88;;;15.00;99.90;;;;;;5042790;28;20024;-71
2021/06/14 06:28:00;;;;;;;5.43;4.93;;;15.20;99.90;;;;;;5029425;28;20025;-72
2021/06/14 06:30:29;;;;;;;8.05;4.80;;;15.20;99.90;;;;;;5052830;28;20025;-72
2021/06/14 06:32:55;;;;;;;8.27;4.68;;;15.20;99.90;;;;;;5054950;28;20025;-73
2021/06/14 06:35:22;;;;;;;7.20;4.70;;;15.10;99.90;;;;;;5054437;28;20036;-73
2021/06/14 06:37:49;;;;;;;8.57;4.28;;;15.10;99.90;;;;;;5054549;28;20120;-74
2021/06/14 06:40:15;;;;;;;6.45;4.32;;;15.10;99.90;;;;;;5056620;28;20028;-73
2021/06/14 06:42:42;;;;;;;11.60;4.15;;;15.30;99.90;;;;;;5056048;28;20052;-74
2021/06/14 06:45:10;;;;;;;4.63;4.15;;;15.60;99.90;;;;;;5053601;28;20044;-77
2021/06/14 06:47:36;;;;;;;9.38;4.03;;;15.80;99.90;;;;;;5057368;28;20021;-77
2021/06/14 06:50:03;;;;;;;5.28;3.47;;;15.90;99.90;;;;;;5055019;28;20222;-75
2021/06/14 06:52:29;;;;;;;4.30;3.40;;;16.10;99.90;;;;;;5056605;28;20368;-74
2021/06/14 06:54:55;;;;;;;5.03;2.83;;;16.30;99.90;;;;;;5054524;28;20080;-74
2021/06/14 06:57:21;;;;;;;9.98;3.05;;;16.60;99.90;;;;;;5052638;28;20025;-73
2021/06/14 06:59:47;;;;;;;4.93;2.67;;;16.80;99.90;;;;;;5054212;28;20515;-75
2021/06/14 07:02:13;;;;;;;88.45;33.05;;;17.00;99.90;;;;;;5052711;28;20469;-74
2021/06/14 07:04:38;;;;;;;22.00;9.93;;;17.10;99.90;;;;;;5055122;28;20021;-74
2021/06/14 07:07:05;;;;;;;4.03;2.80;;;17.40;99.90;;;;;;5054237;28;20062;-72
2021/06/14 07:09:31;;;;;;;5.07;2.95;;;17.60;99.90;;;;;;5053911;28;20025;-74
2021/06/14 07:11:57;;;;;;;4.47;2.58;;;17.70;99.90;;;;;;5054666;28;20036;-72
2021/06/14 07:14:24;;;;;;;7.50;4.43;;;17.80;99.90;;;;;;5054157;28;20116;-73
2021/06/14 07:16:50;;;;;;;10.05;3.20;;;18.00;99.90;;;;;;5055701;28;20029;-73
2021/06/14 07:19:16;;;;;;;6.53;3.25;;;18.10;99.90;;;;;;5057316;28;20392;-75
2021/06/14 07:21:42;;;;;;;4.57;2.60;;;18.20;99.90;;;;;;5060536;28;20017;-75
2021/06/14 07:24:08;;;;;;;6.53;2.63;;;18.40;99.90;;;;;;5057465;28;20059;-75
2021/06/14 07:26:34;;;;;;;3.47;3.10;;;18.60;99.90;;;;;;5039191;28;20029;-74
2021/06/14 07:29:01;;;;;;;4.25;2.53;;;18.60;99.90;;;;;;5038167;28;20021;-75
2021/06/14 07:31:27;;;;;;;8.70;2.85;;;18.70;99.90;;;;;;5031469;28;20029;-75
2021/06/14 07:33:57;;;;;;;7.05;2.90;;;18.90;99.90;;;;;;5031824;28;20179;-76
2021/06/14 07:36:23;;;;;;;5.35;3.00;;;19.20;99.90;;;;;;5030541;28;20032;-75
2021/06/14 07:38:49;;;;;;;7.20;2.90;;;19.40;99.90;;;;;;5030474;28;20411;-74
2021/06/14 07:41:15;;;;;;;4.88;2.88;;;19.50;99.90;;;;;;5030728;28;20044;-75
2021/06/14 07:43:40;;;;;;;7.78;2.55;;;19.50;99.90;;;;;;5032359;28;20061;-75
2021/06/14 07:46:07;;;;;;;7.68;2.88;;;19.50;99.90;;;;;;5031467;28;20140;-73
2021/06/14 07:48:32;;;;;;;4.05;2.25;;;19.50;99.90;;;;;;5031378;28;20025;-70
2021/06/14 07:50:58;;;;;;;7.20;2.78;;;19.70;99.90;;;;;;5029316;28;20085;-72
2021/06/14 07:53:24;;;;;;;4.47;2.25;;;19.90;99.90;;;;;;5031756;28;20455;-72
2021/06/14 07:55:52;;;;;;;3.05;2.65;;;19.90;99.90;;;;;;5019606;28;20026;-75
2021/06/14 07:58:18;;;;;;;5.85;2.83;;;20.00;99.90;;;;;;5025794;28;20030;-73
2021/06/14 08:00:43;;;;;;;5.63;2.80;;;20.20;99.90;;;;;;5022397;28;20038;-73
2021/06/14 08:03:10;;;;;;;6.53;2.67;;;20.10;99.90;;;;;;5020983;28;20026;-73
2021/06/14 08:05:36;;;;;;;5.05;2.40;;;20.30;99.90;;;;;;5037311;28;20025;-73
2021/06/14 08:08:03;;;;;;;5.55;2.53;;;20.40;99.90;;;;;;5021919;28;20025;-74
2021/06/14 08:10:29;;;;;;;5.75;2.22;;;20.50;99.90;;;;;;5017496;28;20446;-72
2021/06/14 08:12:54;;;;;;;6.35;2.47;;;20.60;99.90;;;;;;5020370;28;20029;-71
2021/06/14 08:15:26;;;;;;;4.43;2.65;;;20.90;99.90;;;;;;5019676;28;20033;-75
2021/06/14 08:17:59;;;;;;;8.23;3.00;;;21.20;99.90;;;;;;5023576;28;20248;-73
2021/06/14 08:25:53;;;;;;;5.75;2.38;;;21.40;99.10;;;;;;5020416;28;20033;-74
2021/06/14 08:28:19;;;;;;;3.80;2.22;;;21.40;99.00;;;;;;5021211;28;20030;-71
2021/06/14 08:30:45;;;;;;;3.75;2.58;;;21.20;99.90;;;;;;5025437;28;20472;-72
2021/06/14 08:33:11;;;;;;;8.73;3.22;;;21.50;99.80;;;;;;5036914;28;20395;-72
2021/06/14 08:35:37;;;;;;;4.05;2.25;;;21.80;98.60;;;;;;5041497;28;20630;-72
2021/06/14 08:38:03;;;;;;;2.75;2.00;;;22.10;98.00;;;;;;5041020;28;20036;-72
2021/06/14 08:40:31;;;;;;;9.90;4.03;;;22.30;97.00;;;;;;5036900;28;20475;-72
2021/06/14 08:43:03;;;;;;;9.95;3.08;;;22.60;96.50;;;;;;5040477;28;20022;-73
2021/06/14 08:45:30;;;;;;;5.88;2.30;;;23.10;97.20;;;;;;5035393;28;20037;-71
2021/06/14 08:47:57;;;;;;;3.92;1.75;;;23.00;94.80;;;;;;5034302;28;20028;-73
2021/06/14 08:50:22;;;;;;;23.10;2.90;;;23.40;96.40;;;;;;5037277;28;20083;-73
2021/06/14 08:52:48;;;;;;;8.05;2.20;;;23.80;93.90;;;;;;5035866;28;20033;-73
2021/06/14 08:55:16;;;;;;;10.60;2.17;;;23.50;92.70;;;;;;5036573;28;20021;-73
2021/06/14 08:57:42;;;;;;;4.65;1.85;;;23.50;93.50;;;;;;5035033;28;20126;-72
2021/06/14 09:00:12;;;;;;;4.57;2.40;;;23.70;93.00;;;;;;5038386;28;20112;-74
2021/06/14 09:02:38;;;;;;;4.60;2.10;;;23.90;91.70;;;;;;5036213;28;20472;-73
2021/06/14 09:05:05;;;;;;;2.42;1.58;;;24.20;92.10;;;;;;5034401;28;20041;-73
2021/06/14 09:07:31;;;;;;;5.38;2.25;;;24.50;91.20;;;;;;5036395;28;20463;-72
2021/06/14 09:09:57;;;;;;;6.22;1.90;;;25.00;90.20;;;;;;5033248;28;20025;-72
2021/06/14 09:12:23;;;;;;;6.25;2.13;;;25.40;86.50;;;;;;5036015;28;20026;-72
2021/06/14 09:14:48;;;;;;;3.08;1.80;;;25.80;90.60;;;;;;5040529;28;20025;-73
2021/06/14 09:17:17;;;;;;;4.13;1.88;;;26.40;87.20;;;;;;5037236;28;20546;-73
2021/06/14 09:19:50;;;;;;;6.25;1.80;;;27.10;82.50;;;;;;5037469;28;20026;-73
2021/06/14 09:22:24;;;;;;;3.08;1.88;;;26.80;78.40;;;;;;5031631;28;20606;-72
2021/06/14 09:25:17;;;;;;;3.75;2.33;;;27.00;80.40;;;;;;5053497;28;20392;-72
2021/06/14 09:27:50;;;;;;;3.80;1.70;;;26.10;77.70;;;;;;5021517;28;20028;-71
2021/06/14 09:30:19;;;;;;;3.22;2.00;;;26.20;81.40;;;;;;5017665;28;20102;-72
2021/06/14 09:33:05;;;;;;;3.25;1.77;;;26.80;80.30;;;;;;5018311;28;20076;-73
2021/06/14 09:35:36;;;;;;;3.50;2.30;;;26.30;78.30;;;;;;5015669;28;20022;-71
2021/06/14 09:38:07;;;;;;;8.52;1.80;;;26.10;78.70;;;;;;5024098;28;20045;-72
2021/06/14 09:40:52;;;;;;;4.32;2.03;;;26.40;78.10;;;;;;5053365;28;20033;-72
2021/06/14 09:43:30;;;;;;;2.90;1.63;;;27.00;78.40;;;;;;5054473;28;20021;-72
2021/06/14 09:45:58;;;;;;;4.40;2.17;;;27.10;77.20;;;;;;5052729;28;20440;-74
2021/06/14 09:48:26;;;;;;;3.88;1.85;;;27.40;73.00;;;;;;5053933;28;20120;-74
2021/06/14 09:50:53;;;;;;;4.03;1.85;;;28.40;78.40;;;;;;5050698;28;20028;-75
2021/06/14 09:53:21;;;;;;;3.08;1.73;;;29.80;73.50;;;;;;5051953;28;20024;-72
2021/06/14 09:55:50;;;;;;;5.72;1.70;;;29.60;70.50;;;;;;5042571;28;20028;-74
2021/06/14 09:58:21;;;;;;;4.68;1.58;;;29.40;68.20;;;;;;5033477;28;20026;-74
2021/06/14 10:00:47;;;;;;;5.20;2.17;;;29.70;68.50;;;;;;5047801;28;20124;-72
2021/06/14 10:03:13;;;;;;;2.33;1.90;;;29.70;65.90;;;;;;5033184;28;20021;-72
2021/06/14 10:06:05;;;;;;;5.18;2.47;;;29.30;68.00;;;;;;5033266;28;20049;-72
2021/06/14 10:08:33;;;;;;;3.35;1.90;;;28.50;68.80;;;;;;5032534;28;20034;-73
2021/06/14 10:11:07;;;;;;;2.70;2.05;;;28.00;68.50;;;;;;5040521;28;20028;-74
2021/06/14 10:13:35;;;;;;;4.82;2.20;;;27.60;71.10;;;;;;5049459;28;20025;-70
2021/06/14 10:16:07;;;;;;;3.58;1.85;;;27.50;71.60;;;;;;5033795;28;20530;-72
2021/06/14 10:18:37;;;;;;;4.32;2.38;;;27.20;72.60;;;;;;5011037;28;20041;-72
2021/06/14 10:21:05;;;;;;;2.35;1.90;;;27.20;72.90;;;;;;5105081;22;20123;-76
2021/06/14 10:23:31;;;;;;;3.10;1.80;;;27.40;70.80;;;;;;5089509;28;20020;-76
2021/06/14 10:25:59;;;;;;;2.70;1.95;;;27.70;74.10;;;;;;5091720;28;20035;-76
2021/06/14 10:28:25;;;;;;;5.38;2.00;;;28.00;72.20;;;;;;5091402;28;20028;-76
2021/06/14 10:30:52;;;;;;;4.22;2.40;;;28.00;71.30;;;;;;5071725;28;20567;-75
2021/06/14 10:33:22;;;;;;;3.65;2.00;;;27.90;72.60;;;;;;5072889;28;20032;-75
2021/06/14 10:35:50;;;;;;;6.60;1.85;;;28.20;69.90;;;;;;5073016;28;20028;-73
2021/06/14 10:38:18;;;;;;;6.72;2.30;;;27.70;71.10;;;;;;5073548;28;20040;-74
2021/06/14 10:40:45;;;;;;;3.33;1.92;;;27.60;68.80;;;;;;5071466;28;20033;-72
2021/06/14 10:43:12;;;;;;;4.70;2.00;;;27.30;68.30;;;;;;5070863;28;20394;-73
2021/06/14 10:45:37;;;;;;;3.05;2.00;;;27.00;69.00;;;;;;5073437;28;20021;-73
2021/06/14 10:48:08;;;;;;;3.53;1.88;;;27.50;72.50;;;;;;5072352;28;20021;-73
2021/06/14 10:50:35;;;;;;;3.30;1.83;;;28.00;68.40;;;;;;5070753;28;20482;-74
2021/06/14 10:53:01;;;;;;;5.93;2.38;;;28.30;69.60;;;;;;5071459;28;20619;-73
2021/06/14 10:55:35;;;;;;;3.58;2.10;;;28.00;66.40;;;;;;5071612;28;20020;-75
2021/06/14 10:58:05;;;;;;;5.30;2.30;;;28.10;67.90;;;;;;5077418;28;20028;-72
2021/06/14 11:00:35;;;;;;;4.75;2.03;;;28.50;67.60;;;;;;5091404;28;20385;-73
2021/06/14 11:03:06;;;;;;;2.38;1.95;;;28.80;71.30;;;;;;5090700;28;20024;-75
2021/06/14 11:05:40;;;;;;;5.30;1.58;;;29.40;66.20;;;;;;5090171;28;20107;-74
2021/06/14 11:08:17;;;;;;;6.38;1.80;;;28.80;62.40;;;;;;5091380;28;20056;-74
2021/06/14 11:10:44;;;;;;;2.22;1.70;;;28.60;62.60;;;;;;5089968;28;20054;-74
2021/06/14 11:13:15;;;;;;;3.25;1.77;;;28.80;65.00;;;;;;5092611;28;20027;-75
2021/06/14 11:15:44;;;;;;;8.00;1.55;;;29.30;61.70;;;;;;5091776;28;20034;-75
2021/06/14 11:18:25;;;;;;;3.97;2.05;;;29.30;61.30;;;;;;5091665;28;20027;-75
2021/06/14 11:20:52;;;;;;;2.15;1.95;;;29.30;61.60;;;;;;5088807;28;20028;-74
2021/06/14 11:23:26;;;;;;;5.25;1.83;;;29.30;60.60;;;;;;5090534;28;20019;-74
2021/06/14 11:25:52;;;;;;;2.30;1.65;;;29.30;60.20;;;;;;5090710;28;20028;-74
2021/06/14 11:28:36;;;;;;;4.57;2.20;;;29.20;61.90;;;;;;5073500;28;20385;-73
2021/06/14 11:31:20;;;;;;;5.30;2.00;;;29.20;60.80;;;;;;5070847;28;20024;-72
2021/06/14 11:33:48;;;;;;;3.42;2.17;;;29.40;63.80;;;;;;5071566;28;20103;-74
2021/06/14 11:36:21;;;;;;;6.22;2.65;;;29.50;64.80;;;;;;5072669;28;20138;-73
2021/06/14 11:38:48;;;;;;;6.45;1.90;;;29.90;67.00;;;;;;5077345;28;20032;-72
2021/06/14 11:41:28;;;;;;;4.30;1.73;;;30.10;62.00;;;;;;5095167;28;20028;-73
2021/06/14 11:44:24;;;;;;;4.20;1.95;;;30.40;63.40;;;;;;5095726;28;20020;-73
2021/06/14 11:46:55;;;;;;;11.05;2.13;;;30.80;59.50;;;;;;5095463;28;20085;-75
2021/06/14 11:49:35;;;;;;;4.68;1.67;;;30.80;60.40;;;;;;5093661;28;20059;-73
2021/06/14 11:52:04;;;;;;;2.38;1.50;;;31.00;57.30;;;;;;5095653;28;20107;-72
2021/06/14 11:54:30;;;;;;;7.93;1.70;;;30.60;59.30;;;;;;5095929;28;20016;-74
2021/06/14 11:57:01;;;;;;;2.30;1.38;;;30.60;58.20;;;;;;5096003;28;20028;-73
2021/06/14 11:59:35;;;;;;;4.15;1.50;;;31.10;59.80;;;;;;5094579;28;20074;-73
2021/06/14 12:02:20;;;;;;;2.08;1.35;;;31.20;56.70;;;;;;5097677;28;20422;-73
2021/06/14 12:04:50;;;;;;;5.50;1.70;;;31.40;59.60;;;;;;5107672;28;20024;-74
2021/06/14 12:07:43;;;;;;;3.95;1.83;;;31.70;56.20;;;;;;5107094;28;20024;-72
2021/06/14 12:10:14;;;;;;;3.95;1.83;;;31.20;58.70;;;;;;5103460;28;20028;-72
2021/06/14 12:12:44;;;;;;;4.38;1.77;;;30.70;58.00;;;;;;5098941;28;20038;-73
2021/06/14 12:15:11;;;;;;;3.17;1.85;;;30.40;58.20;;;;;;5107199;28;20027;-74
2021/06/14 12:17:43;;;;;;;5.05;1.50;;;30.90;60.40;;;;;;5111642;28;20016;-74
2021/06/14 12:20:10;;;;;;;3.55;1.92;;;31.60;56.70;;;;;;5106166;28;20043;-73
2021/06/14 12:22:37;;;;;;;4.95;1.77;;;32.00;57.80;;;;;;5097646;28;20154;-73
2021/06/14 12:25:09;;;;;;;3.30;1.95;;;32.40;56.30;;;;;;5094934;28;20095;-71
2021/06/14 12:27:35;;;;;;;;;;;32.50;56.30;;;;;;5095312;28;20028;-71
2021/06/14 12:30:05;;;;;;;2.97;1.90;;;32.60;55.80;;;;;;5094125;28;19911;-73
2021/06/14 12:32:32;;;;;;;3.78;1.45;;;32.90;54.90;;;;;;5095070;28;20028;-73
2021/06/14 12:35:04;;;;;;;5.07;1.80;;;32.80;55.60;;;;;;5094213;28;20027;-73
2021/06/14 12:37:30;;;;;;;1.98;1.50;;;32.40;56.30;;;;;;5094870;28;20031;-73
2021/06/14 12:40:09;;;;;;;5.68;1.67;;;31.80;53.60;;;;;;5093497;28;20028;-72
2021/06/14 12:42:35;;;;;;;4.53;1.70;;;31.90;58.10;;;;;;5094591;28;20104;-74
2021/06/14 12:45:13;;;;;;;4.03;1.90;;;32.20;56.70;;;;;;5094470;28;20016;-73
2021/06/14 12:47:47;;;;;;;2.95;1.60;;;32.20;54.30;;;;;;5093606;28;20021;-72
2021/06/14 12:50:20;;;;;;;3.20;1.48;;;31.20;57.80;;;;;;5093408;28;20021;-73
2021/06/14 12:52:46;;;;;;;2.28;1.52;;;31.60;54.60;;;;;;5094570;28;20603;-73
2021/06/14 12:55:26;;;;;;;1.70;1.23;;;31.20;58.70;;;;;;5093128;28;20064;-73
2021/06/14 12:57:53;;;;;;;3.38;1.45;;;31.90;55.10;;;;;;5093656;28;20034;-72
2021/06/14 13:00:22;;;;;;;2.13;1.25;;;31.60;56.50;;;;;;5093163;28;20039;-72